Time;durP1;ratioP1;P1;durP2;ratioP2;P2;SDS_P1;SDS_P2;PMS_P1;PMS_P2;Temp;Humidity;BMP_temperature;BMP_pressure;BME280_temperature;BME280_humidity;BME280_pressure;Samples;Min_cycle;Max_cycle;Signal;HPM_P1;HPM_P2
2023/04/17 00:00:09;;;;;;;1.20;1.20;;;9.90;99.90;;;;;;5094552;28;20213;-78
2023/04/17 00:02:38;;;;;;;1.00;1.00;;;9.90;99.90;;;;;;5094637;28;20196;-76
2023/04/17 00:05:07;;;;;;;1.03;1.03;;;9.90;99.90;;;;;;5094632;28;20170;-78
2023/04/17 00:07:33;;;;;;;1.03;1.03;;;10.00;99.90;;;;;;5094037;28;20169;-80
2023/04/17 00:09:59;;;;;;;1.00;1.00;;;9.90;99.90;;;;;;5094453;28;20180;-81
2023/04/17 00:12:25;;;;;;;0.90;0.90;;;9.90;99.90;;;;;;5094297;28;20186;-79
2023/04/17 00:14:51;;;;;;;1.00;1.00;;;9.90;99.90;;;;;;5093574;28;20177;-78
2023/04/17 00:17:17;;;;;;;0.90;0.90;;;9.90;99.90;;;;;;5096523;28;20178;-78
2023/04/17 00:19:42;;;;;;;1.00;1.00;;;9.90;99.90;;;;;;5095948;28;20293;-78
2023/04/17 00:22:08;;;;;;;1.07;1.07;;;10.00;99.90;;;;;;5094420;28;20530;-76
2023/04/17 00:24:34;;;;;;;1.00;1.00;;;10.00;99.90;;;;;;5092694;28;20177;-76
2023/04/17 00:27:00;;;;;;;0.97;0.87;;;9.90;99.90;;;;;;5092918;28;20189;-75
2023/04/17 00:29:26;;;;;;;0.90;0.90;;;9.90;99.90;;;;;;5096819;28;20265;-80
2023/04/17 00:31:51;;;;;;;0.90;0.90;;;10.00;99.90;;;;;;5093084;28;20221;-80
2023/04/17 00:34:17;;;;;;;0.90;0.90;;;10.00;99.90;;;;;;5093134;28;20170;-79
2023/04/17 00:36:43;;;;;;;0.83;0.83;;;10.10;99.90;;;;;;5092743;28;20187;-80
2023/04/17 00:39:08;;;;;;;0.90;0.90;;;10.10;99.90;;;;;;5092435;28;20223;-77
2023/04/17 00:41:34;;;;;;;1.03;1.03;;;10.00;99.90;;;;;;5093559;28;20762;-78
2023/04/17 00:44:03;;;;;;;1.10;1.10;;;10.00;99.90;;;;;;5092565;28;20529;-80
2023/04/17 00:46:30;;;;;;;1.10;1.10;;;9.90;99.90;;;;;;5098764;28;20184;-80
2023/04/17 00:48:55;;;;;;;1.10;1.10;;;10.10;99.90;;;;;;5094114;28;20170;-81
2023/04/17 00:51:21;;;;;;;0.83;0.83;;;10.10;99.90;;;;;;5092684;28;20176;-80
2023/04/17 00:53:47;;;;;;;2.10;1.10;;;10.10;99.90;;;;;;5093887;28;20575;-80
2023/04/17 00:56:13;;;;;;;1.37;0.97;;;10.10;99.90;;;;;;5096296;28;20580;-79
2023/04/17 00:58:39;;;;;;;1.00;1.00;;;10.10;99.90;;;;;;5095744;28;20222;-79
2023/04/17 01:01:06;;;;;;;1.30;1.30;;;10.10;99.90;;;;;;5093869;28;20197;-78
2023/04/17 01:03:32;;;;;;;1.13;1.13;;;10.10;99.90;;;;;;5092209;28;20172;-78
2023/04/17 01:05:58;;;;;;;1.20;1.20;;;10.00;99.90;;;;;;5093391;28;20184;-75
2023/04/17 01:08:24;;;;;;;1.30;1.30;;;10.00;99.90;;;;;;5091554;28;20172;-76
2023/04/17 01:10:50;;;;;;;1.27;1.27;;;10.10;99.90;;;;;;5093188;28;20188;-77
2023/04/17 01:13:16;;;;;;;1.00;1.00;;;10.00;99.90;;;;;;5091827;28;20634;-79
2023/04/17 01:15:41;;;;;;;1.10;1.10;;;10.00;99.90;;;;;;5091773;28;20175;-77
2023/04/17 01:18:07;;;;;;;1.17;1.17;;;10.00;99.90;;;;;;5093102;28;20949;-79
2023/04/17 01:20:33;;;;;;;1.10;1.10;;;10.00;99.90;;;;;;5092388;28;20267;-77
2023/04/17 01:23:00;;;;;;;1.40;1.30;;;10.00;99.90;;;;;;5091818;28;20176;-76
2023/04/17 01:25:27;;;;;;;1.73;1.10;;;10.00;99.90;;;;;;5093066;28;20710;-78
2023/04/17 01:27:53;;;;;;;1.00;1.00;;;10.00;99.90;;;;;;5091732;28;20259;-79
2023/04/17 01:30:19;;;;;;;0.97;0.97;;;10.00;99.90;;;;;;5093067;28;20265;-75
2023/04/17 01:32:45;;;;;;;1.00;1.00;;;10.00;99.90;;;;;;5092942;28;20209;-76
2023/04/17 01:35:10;;;;;;;1.10;1.10;;;10.10;99.90;;;;;;5093092;28;20667;-78
2023/04/17 01:37:36;;;;;;;1.00;1.00;;;10.10;99.90;;;;;;5091996;28;20239;-76
2023/04/17 01:40:05;;;;;;;1.23;1.23;;;10.10;99.90;;;;;;5091567;28;20680;-79
2023/04/17 01:42:32;;;;;;;1.00;1.00;;;10.00;99.90;;;;;;5091635;28;20654;-79
2023/04/17 01:44:58;;;;;;;1.00;1.00;;;10.10;99.70;;;;;;5091225;28;20532;-78
2023/04/17 01:47:24;;;;;;;0.97;0.97;;;10.10;99.80;;;;;;5094289;28;20180;-78
2023/04/17 01:49:49;;;;;;;1.17;1.17;;;10.20;99.70;;;;;;5092687;28;20212;-78
2023/04/17 01:52:15;;;;;;;1.17;1.17;;;10.20;99.60;;;;;;5093009;28;20170;-79
2023/04/17 01:54:41;;;;;;;1.00;1.00;;;10.20;99.40;;;;;;5092734;28;20172;-76
2023/04/17 01:57:06;;;;;;;0.87;0.87;;;10.20;99.40;;;;;;5094220;28;20586;-79
2023/04/17 01:59:32;;;;;;;0.83;0.83;;;10.20;99.30;;;;;;5091494;28;20210;-77
2023/04/17 02:01:58;;;;;;;3.13;1.00;;;10.20;99.20;;;;;;5092599;28;20189;-80
2023/04/17 02:04:23;;;;;;;0.90;0.90;;;10.20;99.20;;;;;;5092550;28;20179;-79
2023/04/17 02:06:49;;;;;;;1.10;1.10;;;10.20;99.30;;;;;;5092663;28;20177;-79
2023/04/17 02:09:15;;;;;;;0.97;0.97;;;10.20;99.20;;;;;;5092366;28;20184;-79
2023/04/17 02:11:41;;;;;;;1.30;1.30;;;10.30;99.10;;;;;;5091036;28;20626;-75
2023/04/17 02:14:07;;;;;;;0.83;0.83;;;10.30;99.10;;;;;;5090974;28;20174;-75
2023/04/17 02:16:33;;;;;;;1.00;1.00;;;10.30;99.30;;;;;;5094570;28;20180;-79
2023/04/17 02:18:58;;;;;;;1.03;1.03;;;10.30;99.00;;;;;;5091978;28;20210;-76
2023/04/17 02:21:26;;;;;;;1.00;1.00;;;10.30;99.10;;;;;;5092256;28;20678;-79
2023/04/17 02:23:52;;;;;;;1.23;1.23;;;10.30;99.20;;;;;;5074222;28;20650;-76
2023/04/17 02:26:18;;;;;;;0.80;0.80;;;10.30;99.20;;;;;;5091284;28;20182;-78
2023/04/17 02:28:44;;;;;;;0.93;0.93;;;10.40;98.90;;;;;;5096986;28;20196;-75
2023/04/17 02:31:11;;;;;;;1.10;1.10;;;10.30;98.90;;;;;;5092901;28;20181;-78
2023/04/17 02:33:37;;;;;;;0.70;0.70;;;10.40;98.90;;;;;;5093674;28;20227;-76
2023/04/17 02:36:05;;;;;;;1.23;1.23;;;10.30;98.80;;;;;;5096090;28;20686;-75
2023/04/17 02:38:31;;;;;;;0.80;0.80;;;10.30;98.90;;;;;;5094771;28;20339;-78
2023/04/17 02:40:57;;;;;;;0.90;0.90;;;10.40;98.80;;;;;;5096011;28;20291;-77
2023/04/17 02:43:23;;;;;;;1.37;0.90;;;10.40;98.70;;;;;;5094778;28;20509;-78
2023/04/17 02:45:50;;;;;;;0.90;0.90;;;10.40;98.60;;;;;;5096054;28;20206;-75
2023/04/17 02:48:16;;;;;;;1.60;1.00;;;10.40;98.70;;;;;;5094715;28;20175;-77
2023/04/17 02:50:42;;;;;;;0.70;0.70;;;10.40;98.70;;;;;;5094531;28;20187;-75
2023/04/17 02:53:08;;;;;;;0.90;0.90;;;10.40;98.70;;;;;;5095835;28;20260;-78
2023/04/17 02:55:34;;;;;;;1.07;1.00;;;10.40;98.90;;;;;;5096014;28;20182;-76
2023/04/17 02:58:00;;;;;;;0.70;0.70;;;10.40;98.70;;;;;;5095591;28;20217;-79
2023/04/17 03:00:26;;;;;;;0.70;0.70;;;10.40;98.60;;;;;;5097359;28;20254;-75
2023/04/17 03:02:52;;;;;;;0.70;0.70;;;10.40;98.50;;;;;;5096466;28;20181;-77
2023/04/17 03:05:22;;;;;;;1.00;1.00;;;10.50;98.70;;;;;;5096151;28;20709;-80
2023/04/17 03:07:51;;;;;;;0.73;0.73;;;10.50;98.70;;;;;;5104423;28;20170;-79
2023/04/17 03:10:17;;;;;;;1.00;1.00;;;10.50;98.60;;;;;;5098967;28;20785;-76
2023/04/17 03:12:43;;;;;;;0.90;0.90;;;10.50;98.60;;;;;;5095710;28;20171;-77
2023/04/17 03:15:09;;;;;;;0.90;0.90;;;10.40;98.60;;;;;;5095719;28;20526;-78
2023/04/17 03:17:35;;;;;;;0.80;0.80;;;10.50;98.90;;;;;;5095754;28;20177;-75
2023/04/17 03:20:01;;;;;;;1.00;1.00;;;10.40;98.70;;;;;;5095305;28;20209;-76
2023/04/17 03:22:27;;;;;;;1.30;1.30;;;10.40;98.70;;;;;;5095381;28;20173;-75
2023/04/17 03:24:52;;;;;;;1.40;0.90;;;10.50;98.60;;;;;;5095130;28;20541;-77
2023/04/17 03:27:23;;;;;;;0.90;0.90;;;10.50;98.50;;;;;;5095327;28;20185;-76
2023/04/17 03:29:53;;;;;;;0.90;0.90;;;10.50;98.50;;;;;;5095314;28;20185;-75
2023/04/17 03:32:19;;;;;;;1.00;1.00;;;10.50;98.60;;;;;;5095479;28;20181;-75
2023/04/17 03:34:45;;;;;;;0.80;0.80;;;10.50;98.60;;;;;;5095278;28;20540;-77
2023/04/17 03:37:11;;;;;;;1.00;1.00;;;10.50;98.60;;;;;;5095148;28;20175;-77
2023/04/17 03:39:36;;;;;;;1.43;1.10;;;10.50;98.50;;;;;;5093585;28;20220;-76
2023/04/17 03:42:02;;;;;;;1.80;1.10;;;10.50;98.50;;;;;;5094637;28;20182;-74
2023/04/17 03:44:28;;;;;;;1.10;1.10;;;10.50;98.50;;;;;;5093171;28;20633;-77
2023/04/17 03:46:53;;;;;;;0.90;0.90;;;10.50;98.50;;;;;;5095336;28;20176;-77
2023/04/17 03:49:19;;;;;;;0.80;0.80;;;10.50;98.50;;;;;;5097568;28;20175;-78
2023/04/17 03:51:45;;;;;;;1.00;1.00;;;10.50;98.50;;;;;;5094913;28;20174;-77
2023/04/17 03:54:11;;;;;;;0.93;0.93;;;10.50;98.60;;;;;;5094740;28;20170;-74
2023/04/17 03:56:36;;;;;;;1.37;1.30;;;10.50;98.70;;;;;;5094792;28;20178;-76
2023/04/17 03:59:03;;;;;;;0.90;0.90;;;10.50;98.70;;;;;;5097367;28;20232;-77
2023/04/17 04:01:28;;;;;;;0.90;0.90;;;10.50;98.70;;;;;;5094694;28;20175;-78
2023/04/17 04:03:54;;;;;;;1.10;1.00;;;10.50;98.60;;;;;;5093631;28;20661;-78
2023/04/17 04:06:21;;;;;;;0.90;0.90;;;10.50;98.70;;;;;;5094834;28;20171;-78
2023/04/17 04:08:48;;;;;;;1.00;1.00;;;10.50;98.60;;;;;;5092790;28;20171;-77
2023/04/17 04:11:14;;;;;;;1.10;1.10;;;10.50;98.60;;;;;;5093572;28;20171;-80
2023/04/17 04:13:40;;;;;;;0.90;0.90;;;10.50;98.60;;;;;;5092956;28;20185;-77
2023/04/17 04:16:07;;;;;;;1.00;1.00;;;10.50;98.60;;;;;;5092567;28;20254;-77
2023/04/17 04:18:33;;;;;;;0.90;0.90;;;10.50;98.70;;;;;;5092844;28;20210;-78
2023/04/17 04:20:59;;;;;;;1.10;1.10;;;10.60;98.50;;;;;;5094139;28;20183;-74
2023/04/17 04:23:26;;;;;;;1.00;1.00;;;10.60;98.60;;;;;;5094343;28;20484;-75
2023/04/17 04:25:55;;;;;;;1.07;1.07;;;10.50;98.60;;;;;;5097352;28;20227;-76
2023/04/17 04:28:22;;;;;;;1.20;1.20;;;10.60;98.70;;;;;;5094337;28;20180;-77
2023/04/17 04:30:49;;;;;;;1.07;1.00;;;10.60;98.70;;;;;;5094224;28;20192;-80
2023/04/17 04:33:19;;;;;;;1.00;1.00;;;10.50;98.70;;;;;;5093305;28;20175;-78
2023/04/17 04:35:46;;;;;;;0.77;0.77;;;10.60;98.70;;;;;;5093733;28;20167;-79
2023/04/17 04:38:12;;;;;;;0.83;0.83;;;10.60;98.80;;;;;;5092128;28;20171;-77
2023/04/17 04:40:38;;;;;;;1.03;1.03;;;10.60;98.80;;;;;;5093704;28;20172;-78
2023/04/17 04:43:05;;;;;;;1.13;1.13;;;10.70;98.70;;;;;;5093613;28;20175;-78
2023/04/17 04:45:31;;;;;;;1.43;1.43;;;10.70;98.60;;;;;;5092115;28;20187;-76
2023/04/17 04:47:57;;;;;;;1.20;1.10;;;10.70;98.70;;;;;;5092327;28;20228;-76
2023/04/17 04:50:22;;;;;;;1.20;1.20;;;10.70;98.40;;;;;;5093728;28;20210;-74
2023/04/17 04:52:48;;;;;;;1.13;1.10;;;10.70;98.60;;;;;;5093731;28;20196;-76
2023/04/17 04:55:14;;;;;;;1.10;1.10;;;10.70;98.50;;;;;;5093447;28;20181;-74
2023/04/17 04:57:40;;;;;;;1.30;1.30;;;10.70;98.60;;;;;;5093074;28;20314;-80
2023/04/17 05:00:08;;;;;;;1.00;1.00;;;10.70;98.40;;;;;;5093147;28;20693;-76
2023/04/17 05:02:34;;;;;;;0.80;0.80;;;10.70;98.50;;;;;;5092197;28;20201;-78
2023/04/17 05:05:00;;;;;;;1.10;1.10;;;10.80;98.50;;;;;;5093379;28;20208;-76
2023/04/17 05:07:26;;;;;;;1.13;1.13;;;10.80;98.50;;;;;;5093207;28;20581;-77
2023/04/17 05:09:51;;;;;;;1.10;1.10;;;10.70;98.50;;;;;;5094158;28;20541;-77
2023/04/17 05:12:17;;;;;;;1.30;1.20;;;10.70;98.60;;;;;;5093190;28;20208;-76
2023/04/17 05:14:43;;;;;;;0.90;0.90;;;10.70;98.70;;;;;;5093271;28;20568;-77
2023/04/17 05:17:08;;;;;;;1.40;1.30;;;10.70;98.60;;;;;;5091363;28;20198;-77
2023/04/17 05:19:34;;;;;;;1.40;1.30;;;10.70;98.70;;;;;;5094690;28;20204;-78
2023/04/17 05:22:00;;;;;;;0.90;0.90;;;10.70;98.70;;;;;;5093360;28;20189;-76
2023/04/17 05:24:25;;;;;;;1.13;1.13;;;10.70;98.70;;;;;;5093556;28;20538;-78
2023/04/17 05:26:52;;;;;;;2.23;1.20;;;10.70;98.80;;;;;;5092000;28;20241;-75
2023/04/17 05:29:18;;;;;;;1.47;1.47;;;10.80;98.60;;;;;;5096073;28;20182;-76
2023/04/17 05:31:44;;;;;;;1.03;1.03;;;10.80;98.70;;;;;;5094851;28;20185;-75
2023/04/17 05:34:10;;;;;;;1.00;1.00;;;10.70;98.60;;;;;;5092109;28;20176;-76
2023/04/17 05:36:36;;;;;;;1.30;1.30;;;10.80;98.70;;;;;;5092774;28;20709;-76
2023/04/17 05:39:01;;;;;;;1.23;1.23;;;10.90;98.60;;;;;;5092406;28;20218;-76
2023/04/17 05:41:29;;;;;;;1.50;1.40;;;10.90;98.70;;;;;;5095257;28;20180;-76
2023/04/17 05:43:55;;;;;;;1.30;1.20;;;11.00;98.60;;;;;;5096445;28;20171;-77
2023/04/17 05:46:21;;;;;;;2.40;2.20;;;11.00;98.60;;;;;;5093472;28;20184;-75
2023/04/17 05:48:46;;;;;;;1.30;1.30;;;11.00;98.60;;;;;;5092870;28;20251;-76
2023/04/17 05:51:12;;;;;;;1.50;1.40;;;11.00;98.60;;;;;;5092962;28;20176;-77
2023/04/17 05:53:38;;;;;;;1.23;1.20;;;11.00;98.50;;;;;;5092864;28;20683;-76
2023/04/17 05:56:04;;;;;;;1.23;1.23;;;11.00;98.60;;;;;;5091833;28;20180;-77
2023/04/17 05:58:30;;;;;;;1.17;1.17;;;11.10;98.60;;;;;;5092047;28;20710;-77
2023/04/17 06:00:56;;;;;;;1.07;1.07;;;11.10;98.40;;;;;;5092506;28;20186;-76
2023/04/17 06:03:22;;;;;;;1.10;1.10;;;11.20;98.50;;;;;;5092460;28;20228;-76
2023/04/17 06:05:48;;;;;;;1.50;1.40;;;11.10;98.50;;;;;;5092310;28;20177;-75
2023/04/17 06:08:13;;;;;;;1.63;1.53;;;11.20;98.50;;;;;;5090865;28;20173;-78
2023/04/17 06:10:39;;;;;;;1.37;1.30;;;11.20;98.40;;;;;;5092624;28;20179;-75
2023/04/17 06:13:05;;;;;;;1.20;1.20;;;11.30;98.30;;;;;;5091029;28;20171;-77
2023/04/17 06:15:33;;;;;;;1.13;1.13;;;11.30;98.10;;;;;;5092088;28;20174;-77
2023/04/17 06:17:59;;;;;;;1.27;1.27;;;11.40;98.20;;;;;;5090829;28;20185;-79
2023/04/17 06:20:25;;;;;;;1.30;1.30;;;11.40;98.30;;;;;;5091998;28;20210;-77
2023/04/17 06:22:51;;;;;;;1.53;1.50;;;11.40;98.20;;;;;;5092484;28;20555;-76
2023/04/17 06:25:17;;;;;;;1.70;1.60;;;11.50;98.20;;;;;;5090867;28;20186;-77
2023/04/17 06:27:42;;;;;;;1.17;1.10;;;11.50;98.20;;;;;;5092336;28;20173;-75
2023/04/17 06:30:08;;;;;;;1.37;1.37;;;11.60;98.10;;;;;;5090907;28;20173;-79
2023/04/17 06:32:34;;;;;;;1.37;1.37;;;11.60;98.10;;;;;;5091120;28;20212;-77
2023/04/17 06:35:00;;;;;;;1.60;1.50;;;11.60;98.10;;;;;;5092209;28;20208;-77
2023/04/17 06:37:26;;;;;;;0.97;0.97;;;11.70;97.90;;;;;;5092210;28;20175;-77
2023/04/17 06:39:52;;;;;;;1.10;1.10;;;11.80;97.90;;;;;;5091627;28;20909;-77
2023/04/17 06:42:19;;;;;;;1.20;1.20;;;11.90;98.00;;;;;;5092235;28;20258;-75
2023/04/17 06:44:45;;;;;;;1.50;1.40;;;12.10;97.70;;;;;;5090393;28;20181;-75
2023/04/17 06:47:10;;;;;;;1.27;1.20;;;12.10;97.50;;;;;;5091733;28;20166;-77
2023/04/17 06:49:36;;;;;;;2.90;2.70;;;12.10;97.60;;;;;;5090670;28;20712;-75
2023/04/17 06:52:02;;;;;;;1.60;1.50;;;12.20;97.60;;;;;;5094998;28;20173;-76
2023/04/17 06:54:31;;;;;;;1.43;1.43;;;12.20;97.50;;;;;;5093508;28;20222;-77
2023/04/17 06:56:57;;;;;;;2.53;1.40;;;12.40;97.40;;;;;;5092248;28;20305;-77
2023/04/17 06:59:22;;;;;;;1.43;1.40;;;12.50;97.20;;;;;;5092114;28;20301;-76
2023/04/17 07:01:48;;;;;;;1.50;1.40;;;12.50;97.20;;;;;;5093020;28;20174;-76
2023/04/17 07:04:16;;;;;;;1.40;1.40;;;12.60;97.10;;;;;;5094824;28;20265;-76
2023/04/17 07:06:42;;;;;;;1.40;1.30;;;12.70;97.00;;;;;;5091963;28;20313;-78
2023/04/17 07:09:08;;;;;;;1.40;1.40;;;12.60;97.00;;;;;;5091434;28;20629;-78
2023/04/17 07:11:33;;;;;;;1.20;1.20;;;12.80;96.90;;;;;;5091804;28;20738;-76
2023/04/17 07:13:59;;;;;;;1.30;1.20;;;12.80;96.80;;;;;;5091931;28;20170;-76
2023/04/17 07:16:25;;;;;;;1.57;1.33;;;12.90;96.70;;;;;;5091494;28;20175;-76
2023/04/17 07:18:51;;;;;;;1.60;1.10;;;13.00;96.60;;;;;;5093593;28;20236;-78
2023/04/17 07:21:17;;;;;;;1.50;1.40;;;12.90;96.50;;;;;;5095348;28;20173;-75
2023/04/17 07:23:43;;;;;;;1.20;1.20;;;12.90;96.50;;;;;;5095227;28;20181;-76
2023/04/17 07:26:12;;;;;;;1.20;1.20;;;13.00;96.50;;;;;;5095157;28;20189;-77
2023/04/17 07:28:38;;;;;;;0.97;0.97;;;13.10;96.30;;;;;;5095340;28;20167;-79
2023/04/17 07:31:07;;;;;;;1.20;1.20;;;13.10;96.20;;;;;;5093846;28;20262;-78
2023/04/17 07:33:37;;;;;;;1.27;1.27;;;13.20;96.50;;;;;;5095137;28;20218;-77
2023/04/17 07:36:04;;;;;;;1.50;1.40;;;13.30;96.40;;;;;;5093536;28;20174;-76
2023/04/17 07:38:33;;;;;;;1.30;1.30;;;13.30;96.20;;;;;;5093639;28;20185;-76
2023/04/17 07:40:59;;;;;;;1.30;1.30;;;13.20;96.20;;;;;;5094696;28;20256;-78
2023/04/17 07:43:26;;;;;;;1.60;1.50;;;13.20;96.40;;;;;;5095033;28;20174;-79
2023/04/17 07:45:51;;;;;;;1.23;1.23;;;13.20;96.40;;;;;;5094694;28;20173;-77
2023/04/17 07:48:18;;;;;;;1.30;1.30;;;13.20;96.40;;;;;;5094882;28;20166;-78
2023/04/17 07:50:44;;;;;;;1.37;1.37;;;13.20;96.10;;;;;;5094517;28;20171;-75
2023/04/17 07:53:10;;;;;;;1.30;1.30;;;13.30;96.40;;;;;;5094818;28;20175;-77
2023/04/17 07:55:36;;;;;;;1.30;1.30;;;13.30;96.20;;;;;;5093626;28;20182;-78
2023/04/17 07:58:05;;;;;;;1.40;1.30;;;13.40;96.10;;;;;;5094855;28;20246;-77
2023/04/17 08:00:31;;;;;;;1.90;1.50;;;13.50;96.10;;;;;;5097494;28;20256;-79
2023/04/17 08:02:58;;;;;;;1.30;1.30;;;13.70;95.80;;;;;;5097734;28;20630;-79
2023/04/17 08:05:24;;;;;;;1.53;1.43;;;13.80;96.10;;;;;;5094727;28;20193;-77
2023/04/17 08:07:50;;;;;;;1.40;1.40;;;14.00;95.90;;;;;;5093571;28;20174;-77
2023/04/17 08:10:16;;;;;;;1.40;1.40;;;14.00;95.90;;;;;;5094454;28;20174;-79
2023/04/17 08:12:41;;;;;;;1.80;1.70;;;14.10;95.50;;;;;;5094631;28;20296;-77
2023/04/17 08:15:08;;;;;;;1.30;1.30;;;14.00;95.60;;;;;;5094221;28;20701;-77
2023/04/17 08:17:34;;;;;;;1.23;1.23;;;13.90;95.50;;;;;;5094444;28;20516;-76
2023/04/17 08:20:10;;;;;;;1.70;1.60;;;13.90;95.40;;;;;;5093956;28;20383;-76
2023/04/17 08:22:41;;;;;;;1.47;1.40;;;13.90;95.50;;;;;;5098684;28;20155;-77
2023/04/17 08:25:08;;;;;;;2.33;1.60;;;14.00;95.30;;;;;;5093901;28;20511;-75
2023/04/17 08:27:39;;;;;;;1.63;1.50;;;14.10;95.40;;;;;;5096979;28;20185;-76
2023/04/17 08:30:07;;;;;;;1.57;1.50;;;14.10;95.30;;;;;;5092368;28;20183;-76
2023/04/17 08:32:48;;;;;;;1.53;1.53;;;14.20;95.50;;;;;;5097912;28;20171;-74
2023/04/17 08:35:16;;;;;;;1.40;1.30;;;14.20;94.90;;;;;;5101143;28;20175;-79
2023/04/17 08:37:45;;;;;;;1.50;1.50;;;14.00;95.20;;;;;;5095458;28;20545;-75
2023/04/17 08:40:12;;;;;;;1.33;1.30;;;14.10;95.10;;;;;;5093515;28;20206;-77
2023/04/17 08:42:40;;;;;;;1.63;1.60;;;14.20;94.90;;;;;;5094109;28;20253;-75
2023/04/17 08:45:15;;;;;;;1.60;1.60;;;14.10;95.00;;;;;;5093716;28;20231;-76
2023/04/17 08:47:42;;;;;;;1.23;1.23;;;14.10;95.20;;;;;;5093990;28;20245;-79
2023/04/17 08:50:18;;;;;;;1.60;1.50;;;14.00;95.00;;;;;;5093736;28;20181;-76
2023/04/17 08:52:50;;;;;;;2.40;1.53;;;14.00;94.90;;;;;;5092382;28;20201;-77
2023/04/17 08:55:19;;;;;;;1.40;1.40;;;14.10;94.90;;;;;;5093393;28;20204;-78
2023/04/17 08:58:03;;;;;;;1.70;1.60;;;14.20;94.60;;;;;;5093381;28;20222;-78
2023/04/17 09:00:36;;;;;;;1.50;1.50;;;14.20;94.90;;;;;;5093348;28;20681;-76
2023/04/17 09:03:07;;;;;;;2.70;1.40;;;14.20;94.60;;;;;;5093391;28;20159;-76
2023/04/17 09:05:37;;;;;;;1.57;1.57;;;14.10;94.60;;;;;;5093306;28;20638;-80
2023/04/17 09:08:16;;;;;;;1.50;1.50;;;14.10;94.90;;;;;;5091799;28;20170;-78
2023/04/17 09:10:46;;;;;;;1.40;1.40;;;14.40;94.70;;;;;;5093090;28;20168;-77
2023/04/17 09:13:14;;;;;;;4.13;1.50;;;14.50;94.20;;;;;;5093347;28;20169;-78
2023/04/17 09:15:41;;;;;;;1.70;1.50;;;14.60;94.20;;;;;;5093043;28;20174;-78
2023/04/17 09:18:23;;;;;;;1.30;1.30;;;14.80;94.30;;;;;;5092029;28;20182;-76
2023/04/17 09:20:50;;;;;;;1.53;1.53;;;14.90;93.90;;;;;;5092910;28;20465;-78
2023/04/17 09:23:16;;;;;;;1.80;1.80;;;14.90;93.60;;;;;;5092980;28;20252;-77
2023/04/17 09:25:42;;;;;;;1.80;1.80;;;14.90;93.90;;;;;;5092696;28;20265;-77
2023/04/17 09:28:12;;;;;;;1.83;1.77;;;15.00;93.90;;;;;;5093084;28;20674;-76
2023/04/17 09:30:39;;;;;;;1.90;1.80;;;15.10;93.70;;;;;;5092752;28;20173;-75
2023/04/17 09:33:06;;;;;;;2.17;2.07;;;15.20;93.50;;;;;;5092860;28;20180;-75
2023/04/17 09:35:32;;;;;;;1.80;1.70;;;15.30;93.30;;;;;;5092555;28;20185;-78
2023/04/17 09:37:58;;;;;;;2.10;2.00;;;15.20;93.40;;;;;;5091707;28;20268;-77
2023/04/17 09:40:26;;;;;;;3.40;3.20;;;15.40;93.50;;;;;;5095159;28;20202;-77
2023/04/17 09:42:56;;;;;;;2.37;2.27;;;15.50;93.40;;;;;;5093858;28;20213;-76
2023/04/17 09:45:23;;;;;;;2.40;2.20;;;15.50;93.30;;;;;;5092696;28;20261;-78
2023/04/17 09:47:51;;;;;;;3.00;2.80;;;15.50;93.30;;;;;;5092734;28;20582;-76
2023/04/17 09:50:20;;;;;;;4.30;2.40;;;15.60;92.80;;;;;;5092777;28;20562;-77
2023/04/17 09:52:51;;;;;;;2.47;2.37;;;15.50;92.80;;;;;;5093533;28;20567;-77
2023/04/17 09:55:22;;;;;;;2.17;2.07;;;15.30;92.90;;;;;;5098578;28;20533;-74
2023/04/17 09:57:53;;;;;;;2.37;2.20;;;15.40;93.10;;;;;;5095449;28;20311;-78
2023/04/17 10:00:22;;;;;;;2.60;2.40;;;15.30;93.20;;;;;;5092611;28;20577;-75
2023/04/17 10:02:52;;;;;;;2.60;2.50;;;15.40;93.20;;;;;;5092526;28;20170;-75
2023/04/17 10:05:19;;;;;;;2.73;2.57;;;15.40;93.30;;;;;;5095030;28;20178;-76
2023/04/17 10:07:45;;;;;;;4.10;3.33;;;15.50;93.20;;;;;;5093256;28;20641;-76
2023/04/17 10:10:21;;;;;;;3.23;3.03;;;15.40;93.10;;;;;;5091029;28;20181;-75
2023/04/17 10:12:48;;;;;;;3.03;2.83;;;15.50;93.20;;;;;;5092248;28;20169;-77
2023/04/17 10:15:15;;;;;;;3.20;3.00;;;15.60;92.80;;;;;;5092077;28;20186;-79
2023/04/17 10:17:41;;;;;;;3.10;2.80;;;15.60;93.20;;;;;;5092347;28;20171;-78
2023/04/17 10:20:22;;;;;;;3.03;2.83;;;15.70;92.90;;;;;;5092103;28;20259;-76
2023/04/17 10:22:53;;;;;;;3.30;3.10;;;15.90;93.00;;;;;;5090820;28;20174;-77
2023/04/17 10:25:28;;;;;;;3.30;3.00;;;16.10;92.40;;;;;;5092494;28;20166;-75
2023/04/17 10:27:59;;;;;;;3.07;2.97;;;16.10;92.50;;;;;;5092428;28;20173;-75
2023/04/17 10:30:53;;;;;;;3.40;3.20;;;16.00;92.30;;;;;;5092331;28;20170;-76
2023/04/17 10:33:21;;;;;;;3.13;2.93;;;16.00;92.50;;;;;;5092040;28;20178;-78
2023/04/17 10:35:47;;;;;;;3.30;3.00;;;16.00;92.40;;;;;;5091978;28;20630;-78
2023/04/17 10:38:15;;;;;;;3.10;2.90;;;16.10;92.50;;;;;;5092285;28;20206;-75
2023/04/17 10:40:42;;;;;;;3.30;3.10;;;16.10;92.20;;;;;;5092393;28;20213;-79
2023/04/17 10:43:19;;;;;;;3.23;3.03;;;16.00;92.50;;;;;;5090667;28;20167;-78
2023/04/17 10:46:00;;;;;;;3.03;2.83;;;16.10;92.40;;;;;;5091865;28;20164;-77
2023/04/17 10:48:34;;;;;;;4.37;2.73;;;16.30;92.20;;;;;;5092117;28;20638;-77
2023/04/17 10:51:19;;;;;;;3.40;3.10;;;16.10;92.30;;;;;;5094155;28;20198;-77
2023/04/17 10:53:46;;;;;;;3.20;2.90;;;16.20;92.30;;;;;;5097108;28;20170;-76
2023/04/17 10:56:22;;;;;;;3.33;3.13;;;16.30;92.20;;;;;;5095788;28;20529;-77
2023/04/17 10:59:01;;;;;;;3.30;3.10;;;16.30;91.90;;;;;;5095719;28;20256;-79
2023/04/17 11:01:47;;;;;;;3.27;3.07;;;16.30;92.00;;;;;;5097604;28;20213;-77
2023/04/17 11:04:21;;;;;;;3.33;3.03;;;16.10;92.10;;;;;;5095856;28;20151;-77
2023/04/17 11:06:48;;;;;;;3.20;3.00;;;16.00;92.30;;;;;;5095560;28;20226;-77
2023/04/17 11:09:14;;;;;;;3.00;2.87;;;16.20;92.10;;;;;;5095342;28;20171;-78
2023/04/17 11:11:42;;;;;;;3.60;3.30;;;16.10;92.00;;;;;;5095831;28;20211;-79
2023/04/17 11:14:09;;;;;;;3.13;3.00;;;16.10;92.20;;;;;;5095478;28;20228;-76
2023/04/17 11:16:39;;;;;;;3.33;3.13;;;16.10;92.00;;;;;;5095607;28;20175;-79
2023/04/17 11:19:08;;;;;;;3.50;3.30;;;16.10;92.20;;;;;;5095569;28;20198;-76
2023/04/17 11:21:38;;;;;;;3.73;3.43;;;16.30;92.20;;;;;;5095251;28;20586;-77
2023/04/17 11:24:04;;;;;;;3.80;3.50;;;16.40;91.80;;;;;;5095668;28;20167;-77
2023/04/17 11:26:30;;;;;;;3.50;3.30;;;16.40;91.70;;;;;;5099623;28;20179;-75
2023/04/17 11:28:56;;;;;;;3.43;3.13;;;16.40;91.30;;;;;;5094478;28;20177;-76
2023/04/17 11:31:22;;;;;;;4.00;3.70;;;16.50;91.30;;;;;;5095296;28;20590;-79
2023/04/17 11:33:47;;;;;;;3.87;3.57;;;16.60;90.90;;;;;;5095024;28;20166;-77
2023/04/17 11:36:13;;;;;;;3.70;3.50;;;16.40;90.90;;;;;;5093906;28;20178;-78
2023/04/17 11:38:48;;;;;;;4.10;3.80;;;16.40;91.20;;;;;;5095237;28;20204;-78
2023/04/17 11:41:14;;;;;;;4.73;4.03;;;16.30;91.10;;;;;;5095074;28;20533;-75
2023/04/17 11:43:40;;;;;;;4.40;4.00;;;16.30;91.00;;;;;;5093944;28;20179;-75
2023/04/17 11:46:08;;;;;;;4.03;3.73;;;16.30;91.40;;;;;;5095583;28;20223;-77
2023/04/17 11:48:34;;;;;;;4.50;4.10;;;16.30;91.00;;;;;;5095360;28;20169;-76
2023/04/17 11:51:03;;;;;;;4.13;3.73;;;16.30;91.00;;;;;;5094942;28;20175;-76
2023/04/17 11:53:29;;;;;;;4.20;3.80;;;16.40;91.20;;;;;;5094677;28;20253;-76
2023/04/17 11:56:15;;;;;;;4.60;4.20;;;16.40;91.00;;;;;;5094680;28;20175;-77
2023/04/17 11:58:52;;;;;;;3.97;3.67;;;16.30;91.10;;;;;;5093261;28;20222;-75
2023/04/17 12:01:20;;;;;;;5.70;3.77;;;16.40;90.80;;;;;;5094652;28;20195;-76
2023/04/17 12:03:49;;;;;;;4.17;3.90;;;16.60;90.80;;;;;;5093825;28;20676;-77
2023/04/17 12:06:15;;;;;;;4.27;3.97;;;16.60;90.90;;;;;;5093047;28;20171;-77
2023/04/17 12:08:52;;;;;;;4.40;4.10;;;16.60;90.70;;;;;;5094538;28;20180;-78
2023/04/17 12:11:32;;;;;;;4.07;3.77;;;16.70;90.40;;;;;;5094361;28;20151;-78
2023/04/17 12:13:59;;;;;;;3.80;3.50;;;16.80;90.20;;;;;;5092986;28;20202;-73
2023/04/17 12:16:25;;;;;;;4.30;4.00;;;16.60;90.30;;;;;;5094336;28;20163;-77
2023/04/17 12:18:52;;;;;;;4.40;4.00;;;16.70;90.60;;;;;;5094644;28;20268;-75
2023/04/17 12:21:22;;;;;;;4.57;4.17;;;16.90;90.10;;;;;;5095169;28;20181;-78
2023/04/17 12:23:49;;;;;;;4.37;3.97;;;16.80;90.10;;;;;;5094437;28;20638;-75
2023/04/17 12:26:15;;;;;;;4.80;4.40;;;16.80;90.30;;;;;;5092741;28;20170;-76
2023/04/17 12:28:41;;;;;;;4.73;4.33;;;16.80;90.00;;;;;;5094274;28;20178;-75
2023/04/17 12:31:07;;;;;;;4.17;3.90;;;16.80;90.20;;;;;;5095658;28;20174;-78
2023/04/17 12:33:33;;;;;;;4.30;4.00;;;16.80;90.20;;;;;;5094411;28;20179;-76
2023/04/17 12:36:03;;;;;;;5.27;4.70;;;16.90;90.00;;;;;;5093907;28;20170;-76
2023/04/17 12:38:29;;;;;;;4.10;3.77;;;17.10;90.00;;;;;;5093950;28;20634;-78
2023/04/17 12:40:55;;;;;;;4.27;3.97;;;17.20;88.40;;;;;;5092922;28;20178;-77
2023/04/17 12:43:21;;;;;;;3.90;3.60;;;17.40;89.20;;;;;;5094137;28;20216;-78
2023/04/17 12:45:47;;;;;;;5.43;4.40;;;17.50;89.30;;;;;;5093699;28;20177;-75
2023/04/17 12:48:13;;;;;;;3.67;3.37;;;17.50;89.80;;;;;;5092844;28;20290;-78